Time;durP1;ratioP1;P1;durP2;ratioP2;P2;SDS_P1;SDS_P2;PMS_P1;PMS_P2;Temp;Humidity;BMP_temperature;BMP_pressure;BME280_temperature;BME280_humidity;BME280_pressure;Samples;Min_cycle;Max_cycle;Signal;HPM_P1;HPM_P2
2022/02/01 00:01:48;;;;;;;15.25;5.00;;;154.50;2252.80;;;;;;4842374;29;20113;-81
2022/02/01 00:04:22;;;;;;;48.85;19.33;;;154.50;2252.80;;;;;;4889290;29;20572;-82
2022/02/01 00:12:46;;;;;;;64.60;23.77;;;179.30;2252.80;;;;;;4842087;29;20497;-82
2022/02/01 00:18:21;;;;;;;53.83;21.25;;;179.30;2252.80;;;;;;4841741;29;20155;-82
2022/02/01 00:37:17;;;;;;;69.90;31.40;;;179.40;2252.80;;;;;;4859977;29;20114;-81
2022/02/01 00:39:44;;;;;;;71.55;33.35;;;179.40;2252.80;;;;;;4844236;29;20825;-81
2022/02/01 00:42:12;;;;;;;60.63;25.60;;;179.40;2252.80;;;;;;4860347;29;20034;-81
2022/02/01 00:44:38;;;;;;;39.33;18.02;;;179.30;2252.80;;;;;;4859968;29;20030;-82
2022/02/01 00:47:04;;;;;;;26.50;11.80;;;179.30;2252.80;;;;;;4901895;29;20079;-82
2022/02/01 00:49:33;;;;;;;24.20;11.07;;;179.30;2252.80;;;;;;4917767;29;20032;-78
2022/02/01 00:51:59;;;;;;;27.50;10.30;;;154.00;2252.80;;;;;;4917856;29;20107;-80
2022/02/01 00:54:25;;;;;;;26.70;11.13;;;153.60;2252.80;;;;;;4917910;29;20378;-78
2022/02/01 00:56:51;;;;;;;30.55;10.77;;;153.60;2252.80;;;;;;4917482;29;20080;-82
2022/02/01 00:59:16;;;;;;;;;;;153.90;2252.80;;;;;;4918234;29;20028;-81
2022/02/01 01:01:42;;;;;;;17.42;6.85;;;128.90;2252.80;;;;;;4917658;29;19962;-81
2022/02/01 01:04:07;;;;;;;;;;;128.80;2252.80;;;;;;4918218;29;20024;-80
2022/02/01 01:06:33;;;;;;;38.08;14.73;;;128.80;2252.80;;;;;;4917313;29;19973;-75
2022/02/01 01:08:59;;;;;;;;;;;153.70;2252.80;;;;;;4917878;29;20028;-78
2022/02/01 01:11:25;;;;;;;21.67;8.80;;;153.80;2252.80;;;;;;4917499;29;19915;-74
2022/02/01 01:53:43;;;;;;;10.07;5.03;;;153.70;2252.80;;;;;;4877221;29;20048;-81
2022/02/01 01:56:08;;;;;;;;;;;153.80;2252.80;;;;;;4877953;29;20041;-75
2022/02/01 01:58:34;;;;;;;9.80;5.32;;;153.90;2252.80;;;;;;4877335;29;19918;-82
2022/02/01 02:01:11;;;;;;;;;;;154.00;2252.80;;;;;;4877731;29;20041;-78
2022/02/01 02:03:55;;;;;;;11.13;4.57;;;154.10;2252.80;;;;;;4877321;29;20002;-79
2022/02/01 02:06:21;;;;;;;13.40;5.57;;;153.90;2252.80;;;;;;4877213;29;20508;-80
2022/02/01 02:08:51;;;;;;;12.05;5.05;;;153.70;2252.80;;;;;;4877199;29;20044;-77
2022/02/01 02:14:21;;;;;;;18.55;8.07;;;154.00;2252.80;;;;;;4785733;30;20482;-80
2022/02/01 02:16:52;;;;;;;18.05;7.32;;;154.00;2252.80;;;;;;4785953;30;20040;-80
2022/02/01 02:19:19;;;;;;;17.27;6.47;;;154.10;2252.80;;;;;;4785550;30;20110;-78
2022/02/01 02:21:53;;;;;;;19.98;7.63;;;154.10;2252.80;;;;;;4785932;30;20042;-76
2022/02/01 02:24:20;;;;;;;19.55;7.13;;;154.10;2252.80;;;;;;4785683;29;20036;-77
2022/02/01 02:26:48;;;;;;;16.83;7.45;;;153.80;2252.80;;;;;;4785594;30;20047;-79
2022/02/01 02:29:14;;;;;;;21.20;7.93;;;153.90;2252.80;;;;;;4786054;30;20032;-80
2022/02/01 02:31:40;;;;;;;24.83;7.32;;;153.90;2252.80;;;;;;4816517;29;20050;-78
2022/02/01 02:34:09;;;;;;;;;;;154.00;2252.80;;;;;;4822691;29;20034;-80
2022/02/01 02:36:40;;;;;;;19.00;7.70;;;153.90;2252.80;;;;;;4821857;29;19909;-76
2022/02/01 02:39:19;;;;;;;19.33;8.05;;;154.00;2252.80;;;;;;4821338;29;20086;-77
2022/02/01 02:47:24;;;;;;;23.70;8.75;;;154.10;2252.80;;;;;;4821623;29;20093;-80
2022/02/01 02:49:49;;;;;;;;;;;154.10;2252.80;;;;;;4822206;29;20504;-76
2022/02/01 02:52:16;;;;;;;21.75;8.82;;;154.20;2252.80;;;;;;4895822;29;20368;-81
2022/02/01 02:54:41;;;;;;;28.63;8.75;;;154.10;2252.80;;;;;;4915406;29;20039;-75
2022/02/01 02:57:08;;;;;;;24.50;8.52;;;154.00;2252.80;;;;;;4914759;29;20036;-81
2022/02/01 02:59:36;;;;;;;24.73;9.25;;;154.10;2252.80;;;;;;4918244;29;20028;-76
2022/02/01 03:02:02;;;;;;;25.30;9.10;;;154.10;2252.80;;;;;;4919582;29;20020;-80
2022/02/01 03:04:30;;;;;;;28.75;10.25;;;154.10;2252.80;;;;;;4919655;29;20028;-81
2022/02/01 03:06:57;;;;;;;25.90;9.02;;;154.10;2252.80;;;;;;4919465;29;20028;-78
2022/02/01 03:09:24;;;;;;;27.20;9.95;;;154.20;2252.80;;;;;;4919293;29;20047;-80
2022/02/01 03:11:56;;;;;;;20.83;8.25;;;154.10;2252.80;;;;;;4919586;29;20040;-75
2022/02/01 03:14:28;;;;;;;26.02;7.78;;;154.10;2252.80;;;;;;4919387;29;20043;-82
2022/02/01 03:22:09;;;;;;;27.88;9.93;;;154.10;2252.80;;;;;;4919154;29;20401;-79
2022/02/01 03:24:35;;;;;;;;;;;154.20;2252.80;;;;;;4919829;29;20122;-76
2022/02/01 03:27:01;;;;;;;26.42;12.00;;;154.10;2252.80;;;;;;4918996;29;19978;-77
2022/02/01 03:29:26;;;;;;;;;;;154.10;2252.80;;;;;;4919702;29;20032;-80
2022/02/01 03:31:52;;;;;;;24.85;10.48;;;154.10;2252.80;;;;;;4919018;29;20276;-82
2022/02/01 03:34:18;;;;;;;;;;;154.10;2252.80;;;;;;4919520;29;20148;-76
2022/02/01 03:36:44;;;;;;;25.50;10.00;;;154.10;2252.80;;;;;;4919221;29;20378;-79
2022/02/01 03:39:10;;;;;;;;;;;154.10;2252.80;;;;;;4919197;29;20056;-80
2022/02/01 03:41:36;;;;;;;25.88;10.75;;;154.10;2252.80;;;;;;4917996;29;19934;-74
2022/02/01 03:44:04;;;;;;;;;;;154.10;2252.80;;;;;;4919188;29;20068;-78
2022/02/01 03:46:29;;;;;;;21.30;10.07;;;154.00;2252.80;;;;;;4919032;29;20435;-76
2022/02/01 03:48:55;;;;;;;28.65;9.95;;;154.00;2252.80;;;;;;4918982;29;20032;-82
2022/02/01 03:51:20;;;;;;;;;;;154.00;2252.80;;;;;;4919357;29;20032;-80
2022/02/01 03:53:46;;;;;;;19.73;8.82;;;154.00;2252.80;;;;;;4918998;29;19911;-80
2022/02/01 03:56:13;;;;;;;;;;;153.80;2252.80;;;;;;4919594;29;20392;-80
2022/02/01 03:58:39;;;;;;;31.07;14.67;;;153.60;2252.80;;;;;;4918747;29;20001;-80
2022/02/01 04:01:04;;;;;;;;;;;128.90;2252.80;;;;;;4919276;29;20315;-81
2022/02/01 04:03:31;;;;;;;41.35;15.57;;;128.70;2252.80;;;;;;4918689;29;19911;-79
2022/02/01 04:05:57;;;;;;;45.70;19.98;;;128.70;2252.80;;;;;;4918560;29;20471;-76
2022/02/01 04:08:24;;;;;;;51.25;18.90;;;128.80;2252.80;;;;;;4901791;29;20055;-81
2022/02/01 04:10:50;;;;;;;33.78;15.55;;;128.90;2252.80;;;;;;4918317;29;20029;-81
2022/02/01 04:13:17;;;;;;;29.45;14.13;;;128.90;2252.80;;;;;;4918694;29;20028;-76
2022/02/01 04:15:44;;;;;;;34.85;13.52;;;128.90;2252.80;;;;;;4917146;29;20201;-76
2022/02/01 04:18:10;;;;;;;38.42;14.00;;;153.60;2252.80;;;;;;4918351;29;20095;-80
2022/02/01 04:20:37;;;;;;;28.38;12.25;;;153.60;2252.80;;;;;;4917113;29;20035;-80
2022/02/01 04:23:03;;;;;;;25.55;12.07;;;153.70;2252.80;;;;;;4918081;29;20032;-78
2022/02/01 04:25:29;;;;;;;29.98;11.43;;;153.80;2252.80;;;;;;4918241;29;20020;-80
2022/02/01 04:27:55;;;;;;;28.10;12.75;;;153.80;2252.80;;;;;;4918022;29;20477;-81
2022/02/01 04:30:21;;;;;;;30.00;11.65;;;153.80;2252.80;;;;;;4918253;29;20028;-75
2022/02/01 04:32:52;;;;;;;34.50;14.32;;;153.90;2252.80;;;;;;4918015;29;20056;-75
2022/02/01 04:35:23;;;;;;;55.60;19.25;;;153.90;2252.80;;;;;;4918409;29;20107;-81
2022/02/01 04:37:49;;;;;;;55.95;21.05;;;153.90;2252.80;;;;;;4917819;29;20024;-82
2022/02/01 04:40:17;;;;;;;62.85;20.27;;;154.00;2252.80;;;;;;4918076;29;20509;-80
2022/02/01 04:42:44;;;;;;;47.20;20.35;;;153.90;2252.80;;;;;;4917798;29;20028;-80
2022/02/01 04:45:16;;;;;;;49.05;16.60;;;153.80;2252.80;;;;;;4917907;29;20028;-81
2022/02/01 04:47:45;;;;;;;36.15;16.13;;;153.70;2252.80;;;;;;4917664;29;20481;-76
2022/02/01 04:50:13;;;;;;;36.65;13.60;;;153.60;2252.80;;;;;;4917753;29;20059;-79
2022/02/01 04:52:41;;;;;;;37.67;15.32;;;153.70;2252.80;;;;;;4917864;29;20509;-78
2022/02/01 04:55:07;;;;;;;49.30;23.13;;;153.70;2252.80;;;;;;4916455;29;20035;-81
2022/02/01 04:57:35;;;;;;;28.63;12.68;;;153.70;2252.80;;;;;;4917674;29;20060;-76
2022/02/01 05:00:00;;;;;;;36.20;15.30;;;153.60;2252.80;;;;;;4917434;29;20032;-79
2022/02/01 05:02:26;;;;;;;31.38;14.55;;;153.70;2252.80;;;;;;4916274;29;20040;-80
2022/02/01 05:04:52;;;;;;;;;;;153.70;2252.80;;;;;;4901300;29;20557;-81
2022/02/01 05:07:20;;;;;;;40.33;20.80;;;153.70;2252.80;;;;;;4917452;29;19915;-79
2022/02/01 05:09:46;;;;;;;41.75;17.73;;;153.80;2252.80;;;;;;4917742;29;20031;-80
2022/02/01 05:12:12;;;;;;;;;;;153.70;2252.80;;;;;;4917760;29;20076;-80
2022/02/01 05:14:38;;;;;;;27.77;9.35;;;153.80;2252.80;;;;;;4917642;29;19911;-81
2022/02/01 05:17:04;;;;;;;;;;;153.80;2252.80;;;;;;4917463;29;20035;-80
2022/02/01 05:22:12;;;;;;;22.48;10.63;;;153.80;2252.80;;;;;;4916906;29;20556;-76
2022/02/01 05:24:39;;;;;;;29.40;11.60;;;153.80;2252.80;;;;;;4900354;29;20051;-81
2022/02/01 05:27:09;;;;;;;32.70;11.48;;;153.70;2252.80;;;;;;4917259;29;20106;-79
2022/02/01 05:29:36;;;;;;;29.05;11.57;;;153.70;2252.80;;;;;;4916982;29;20024;-81
2022/02/01 05:32:18;;;;;;;29.33;11.23;;;153.70;2252.80;;;;;;4917103;29;20035;-79
2022/02/01 05:34:44;;;;;;;34.58;12.73;;;153.80;2252.80;;;;;;4917122;29;20028;-81
2022/02/01 05:37:09;;;;;;;29.00;12.75;;;153.80;2252.80;;;;;;4916669;29;20128;-80
2022/02/01 05:39:35;;;;;;;;;;;153.80;2252.80;;;;;;4917364;29;20523;-79
2022/02/01 05:42:01;;;;;;;35.53;15.73;;;153.80;2252.80;;;;;;4916632;29;20363;-79
2022/02/01 05:44:26;;;;;;;;;;;153.80;2252.80;;;;;;4917352;29;20051;-80
2022/02/01 05:46:52;;;;;;;31.25;12.65;;;153.80;2252.80;;;;;;4899557;29;19950;-77
2022/02/01 05:49:18;;;;;;;;;;;153.80;2252.80;;;;;;4917529;29;20036;-81
2022/02/01 05:51:45;;;;;;;32.22;14.32;;;153.60;2252.80;;;;;;4916854;29;20422;-80
2022/02/01 05:54:10;;;;;;;34.60;13.88;;;153.80;2252.80;;;;;;4916770;29;20048;-77
2022/02/01 05:56:36;;;;;;;32.25;15.02;;;153.70;2252.80;;;;;;4899708;29;20056;-77
2022/02/01 05:59:02;;;;;;;;;;;153.70;2252.80;;;;;;4917145;29;20392;-81
2022/02/01 06:01:27;;;;;;;27.48;10.23;;;153.70;2252.80;;;;;;4916598;29;19907;-81
2022/02/01 06:03:53;;;;;;;;;;;153.60;2252.80;;;;;;4917094;29;20478;-77
2022/02/01 06:06:19;;;;;;;26.25;11.02;;;153.60;2252.80;;;;;;4917324;29;20284;-79
2022/02/01 06:08:44;;;;;;;;;;;153.60;2252.80;;;;;;4916714;29;20052;-79
2022/02/01 06:11:10;;;;;;;30.35;10.43;;;153.60;2252.80;;;;;;4916669;29;19970;-81
2022/02/01 06:13:38;;;;;;;;;;;153.60;2252.80;;;;;;4916822;29;20045;-76
2022/02/01 06:16:04;;;;;;;32.08;11.98;;;153.60;2252.80;;;;;;4916540;29;19907;-81
2022/02/01 06:18:30;;;;;;;33.78;15.52;;;153.60;2252.80;;;;;;4916316;29;20024;-79
2022/02/01 06:20:56;;;;;;;39.30;18.35;;;153.60;2252.80;;;;;;4916800;29;20029;-81
2022/02/01 06:23:22;;;;;;;53.67;24.02;;;153.60;2252.80;;;;;;4916638;29;20032;-78
2022/02/01 06:25:49;;;;;;;;;;;153.60;2252.80;;;;;;4917147;29;20080;-81
2022/02/01 06:28:22;;;;;;;28.95;10.90;;;153.60;2252.80;;;;;;4916452;29;19998;-82
2022/02/01 06:30:49;;;;;;;39.45;15.82;;;128.90;2252.80;;;;;;4916382;29;20036;-74
2022/02/01 06:33:15;;;;;;;34.63;15.80;;;128.70;2252.80;;;;;;4905166;29;20048;-82
2022/02/01 06:35:41;;;;;;;104.53;51.83;;;128.60;2252.80;;;;;;4910972;29;20021;-78
2022/02/01 06:38:07;;;;;;;58.70;31.85;;;128.70;2252.80;;;;;;4911722;29;20035;-80
2022/02/01 06:40:33;;;;;;;;;;;128.70;2252.80;;;;;;4920572;29;20044;-81
2022/02/01 06:42:59;;;;;;;37.25;15.43;;;128.80;2252.80;;;;;;4913341;29;19911;-84
2022/02/01 06:45:28;;;;;;;32.92;13.98;;;128.80;2252.80;;;;;;4900742;29;20028;-76
2022/02/01 06:47:54;;;;;;;29.13;14.00;;;128.80;2252.80;;;;;;4900799;29;20051;-75
2022/02/01 06:50:21;;;;;;;37.55;15.80;;;128.80;2252.80;;;;;;4916940;29;20043;-79
2022/02/01 06:52:54;;;;;;;40.90;19.27;;;128.90;2252.80;;;;;;4919868;29;20055;-80
2022/02/01 06:55:31;;;;;;;50.13;27.08;;;128.80;2252.80;;;;;;4903436;29;20024;-83
2022/02/01 06:57:58;;;;;;;49.85;25.48;;;128.70;2252.80;;;;;;4919485;29;20020;-75
2022/02/01 07:00:24;;;;;;;57.97;28.45;;;128.70;2252.80;;;;;;4919963;29;20028;-76
2022/02/01 07:02:50;;;;;;;94.93;40.65;;;128.70;2252.80;;;;;;4919717;29;20040;-81
2022/02/01 07:05:15;;;;;;;;;;;128.60;2252.80;;;;;;4919813;29;20116;-85
2022/02/01 07:07:41;;;;;;;41.40;21.67;;;128.50;2252.80;;;;;;4919289;29;19967;-75
2022/02/01 07:10:07;;;;;;;;;;;128.40;2252.80;;;;;;4919630;29;20477;-77
2022/02/01 07:12:33;;;;;;;31.00;13.63;;;128.40;2252.80;;;;;;4919520;29;19908;-83
2022/02/01 07:14:58;;;;;;;33.47;16.25;;;128.40;2252.80;;;;;;4919251;29;20039;-80
2022/02/01 07:17:24;;;;;;;;;;;128.30;2252.80;;;;;;4919878;29;20109;-76
2022/02/01 07:19:50;;;;;;;30.25;13.02;;;128.20;2252.80;;;;;;4919322;29;20363;-74
2022/02/01 07:22:15;;;;;;;;;;;128.20;2252.80;;;;;;4902917;29;20067;-85
2022/02/01 07:24:54;;;;;;;26.40;13.02;;;128.40;2252.80;;;;;;4919047;29;19907;-75
2022/02/01 07:27:37;;;;;;;29.88;16.42;;;128.50;2252.80;;;;;;4918895;29;20032;-74
2022/02/01 07:30:16;;;;;;;29.83;15.05;;;128.50;2252.80;;;;;;4902245;29;20469;-75
2022/02/01 07:32:42;;;;;;;32.10;14.27;;;128.30;2252.80;;;;;;4918659;29;20024;-76
2022/02/01 07:35:09;;;;;;;27.48;14.05;;;128.30;2252.80;;;;;;4901325;29;20036;-74
2022/02/01 07:37:36;;;;;;;26.70;13.48;;;128.40;2252.80;;;;;;4917714;29;20064;-75
2022/02/01 07:40:06;;;;;;;30.80;14.85;;;128.40;2252.80;;;;;;4918618;29;20063;-79
2022/02/01 07:42:32;;;;;;;33.90;15.13;;;128.50;2252.80;;;;;;4918746;29;20142;-77
2022/02/01 07:44:59;;;;;;;;;;;128.40;2252.80;;;;;;4918652;29;20071;-80
2022/02/01 07:47:25;;;;;;;31.33;14.45;;;128.40;2252.80;;;;;;4918828;29;19922;-75
2022/02/01 07:49:51;;;;;;;28.00;13.82;;;128.40;2252.80;;;;;;4918647;29;20028;-75
2022/02/01 07:52:17;;;;;;;;;;;128.20;2252.80;;;;;;4917205;29;20080;-86
2022/02/01 07:54:44;;;;;;;35.63;19.80;;;128.10;2252.80;;;;;;4910406;29;19972;-75
2022/02/01 07:57:10;;;;;;;38.83;20.00;;;128.20;2252.80;;;;;;4909569;29;20040;-81
2022/02/01 07:59:36;;;;;;;39.47;18.42;;;128.00;2252.80;;;;;;4913632;29;20024;-86
2022/02/01 08:02:04;;;;;;;36.65;17.75;;;128.10;2252.80;;;;;;4918529;29;20404;-75
2022/02/01 08:04:34;;;;;;;35.42;16.42;;;128.00;2252.80;;;;;;4918606;29;20028;-75
2022/02/01 08:07:01;;;;;;;31.15;17.58;;;128.10;2252.80;;;;;;4915481;29;20044;-84
2022/02/01 08:09:36;;;;;;;32.85;17.63;;;128.20;2252.80;;;;;;4907858;29;20470;-74
2022/02/01 08:12:11;;;;;;;32.92;17.38;;;128.10;2252.80;;;;;;4907631;29;20032;-86
2022/02/01 08:17:10;;;;;;;34.03;15.75;;;128.20;2252.80;;;;;;4907749;29;20048;-86
2022/02/01 08:22:08;;;;;;;40.97;20.80;;;128.40;2252.80;;;;;;4902124;29;20442;-85
2022/02/01 08:24:34;;;;;;;59.70;28.05;;;128.50;2252.80;;;;;;4899295;29;20025;-81
2022/02/01 08:27:00;;;;;;;;;;;128.50;2252.80;;;;;;4883060;29;20505;-76
2022/02/01 08:29:26;;;;;;;31.17;15.68;;;128.70;2252.80;;;;;;4882761;29;19922;-84
2022/02/01 08:31:51;;;;;;;31.70;15.43;;;128.70;2252.80;;;;;;4899228;29;20056;-75
2022/02/01 08:34:18;;;;;;;31.90;13.85;;;128.80;2252.80;;;;;;4899271;29;20451;-78
2022/02/01 08:36:44;;;;;;;27.75;13.75;;;128.80;2252.80;;;;;;4899102;29;20024;-77
2022/02/01 08:39:10;;;;;;;33.40;15.43;;;128.60;2252.80;;;;;;4908102;29;20126;-75
2022/02/01 08:41:36;;;;;;;;;;;128.60;2252.80;;;;;;4907610;29;20521;-81
2022/02/01 08:44:03;;;;;;;66.95;33.35;;;128.80;2252.80;;;;;;4906158;29;19993;-75
2022/02/01 08:46:29;;;;;;;49.13;24.33;;;128.70;2252.80;;;;;;4907546;29;20079;-74
2022/02/01 08:48:54;;;;;;;45.90;20.98;;;128.90;2252.80;;;;;;4907040;29;20040;-84
2022/02/01 08:51:23;;;;;;;;;;;153.60;2252.80;;;;;;4907845;29;20455;-78
2022/02/01 08:53:56;;;;;;;25.55;14.75;;;153.70;2252.80;;;;;;4912081;29;19954;-75
2022/02/01 08:59:07;;;;;;;34.30;14.63;;;153.60;2252.80;;;;;;4917643;29;20035;-75
2022/02/01 09:01:32;;;;;;;33.50;16.80;;;128.80;2252.80;;;;;;4917710;29;20028;-75
2022/02/01 09:03:59;;;;;;;37.05;16.23;;;128.80;2252.80;;;;;;4917302;29;20051;-84
2022/02/01 09:06:25;;;;;;;34.35;15.40;;;128.70;2252.80;;;;;;4916609;29;20039;-83
2022/02/01 09:08:52;;;;;;;29.25;15.05;;;128.80;2252.80;;;;;;4908287;29;20036;-80
2022/02/01 09:11:18;;;;;;;34.08;15.60;;;128.80;2252.80;;;;;;4912659;29;20500;-74
2022/02/01 09:13:43;;;;;;;31.00;14.43;;;128.90;2252.80;;;;;;4912454;29;20036;-76
2022/02/01 09:16:10;;;;;;;;;;;128.60;2252.80;;;;;;4917682;29;20033;-84
2022/02/01 09:18:36;;;;;;;28.90;17.15;;;128.60;2252.80;;;;;;4914936;29;20320;-78
2022/02/01 09:21:02;;;;;;;;;;;128.60;2252.80;;;;;;4908396;29;20031;-81
2022/02/01 09:23:27;;;;;;;24.73;13.57;;;128.60;2252.80;;;;;;4905312;29;20275;-75
2022/02/01 09:25:53;;;;;;;;;;;128.70;2252.80;;;;;;4907547;29;20024;-84
2022/02/01 09:28:19;;;;;;;31.92;13.80;;;128.70;2252.80;;;;;;4905999;29;19922;-77
2022/02/01 09:30:46;;;;;;;;;;;128.60;2252.80;;;;;;4908550;29;20047;-76
2022/02/01 09:33:12;;;;;;;40.67;16.48;;;128.70;2252.80;;;;;;4907617;29;19908;-76
2022/02/01 09:35:38;;;;;;;;;;;128.80;2252.80;;;;;;4899531;29;20488;-84
2022/02/01 09:38:03;;;;;;;35.97;15.18;;;128.90;2252.80;;;;;;4897820;29;20003;-75
2022/02/01 09:40:29;;;;;;;;;;;128.70;2252.80;;;;;;4898597;29;20033;-76
2022/02/01 09:42:55;;;;;;;35.67;18.23;;;128.80;2252.80;;;;;;4898138;29;19907;-85
2022/02/01 09:45:20;;;;;;;;;;;128.80;2252.80;;;;;;4898567;29;20525;-77
2022/02/01 09:47:49;;;;;;;41.95;17.33;;;128.60;2252.80;;;;;;4897860;29;20014;-85
2022/02/01 09:50:16;;;;;;;42.72;17.65;;;128.60;2252.80;;;;;;4880971;29;20025;-75
2022/02/01 09:52:42;;;;;;;37.38;18.98;;;128.60;2252.80;;;;;;4896357;29;20084;-79
2022/02/01 09:55:09;;;;;;;;;;;128.80;2252.80;;;;;;4898230;29;20246;-83
2022/02/01 09:57:43;;;;;;;66.43;26.92;;;128.50;2252.80;;;;;;4897605;29;20387;-82
2022/02/01 10:00:14;;;;;;;41.55;17.33;;;128.40;2252.80;;;;;;4880874;29;20032;-84
2022/02/01 10:02:44;;;;;;;42.95;18.95;;;128.70;2252.80;;;;;;4898055;29;20081;-81
2022/02/01 10:05:12;;;;;;;34.05;17.20;;;128.70;2252.80;;;;;;4897554;29;20028;-81
2022/02/01 10:07:53;;;;;;;42.95;20.10;;;128.90;2252.80;;;;;;4897580;29;20070;-83
2022/02/01 10:10:22;;;;;;;41.08;19.27;;;128.70;2252.80;;;;;;4880971;29;20405;-84
2022/02/01 10:13:16;;;;;;;34.30;15.23;;;128.80;2252.80;;;;;;4897484;29;20036;-81
2022/02/01 10:16:10;;;;;;;30.52;15.50;;;128.70;2252.80;;;;;;4901911;29;20025;-79
2022/02/01 10:18:36;;;;;;;38.75;16.92;;;128.60;2252.80;;;;;;4916485;29;20020;-77
2022/02/01 10:21:07;;;;;;;39.28;17.17;;;128.60;2252.80;;;;;;4915999;29;20527;-77
2022/02/01 10:23:34;;;;;;;41.67;18.67;;;128.90;2252.80;;;;;;4907704;29;20028;-75
2022/02/01 10:26:06;;;;;;;46.65;19.10;;;128.90;2252.80;;;;;;4906235;29;20036;-75
2022/02/01 10:31:20;;;;;;;36.70;17.90;;;153.60;2252.80;;;;;;4907712;29;20013;-80
2022/02/01 10:36:20;;;;;;;43.75;18.33;;;128.90;2252.80;;;;;;4897294;29;20068;-76
2022/02/01 10:38:49;;;;;;;32.50;16.38;;;128.80;2252.80;;;;;;4897230;29;20056;-76
2022/02/01 10:41:16;;;;;;;45.90;18.67;;;153.80;2252.80;;;;;;4897400;29;20505;-85
2022/02/01 10:43:42;;;;;;;41.28;18.45;;;154.00;2252.80;;;;;;4890717;29;20059;-79
2022/02/01 10:46:16;;;;;;;35.95;17.52;;;154.10;2252.80;;;;;;4904157;29;20028;-79
2022/02/01 10:48:49;;;;;;;43.80;18.65;;;154.10;2252.80;;;;;;4912410;29;20044;-83
2022/02/01 10:51:23;;;;;;;40.88;18.90;;;154.20;2252.80;;;;;;4889153;29;20020;-83
2022/02/01 10:53:55;;;;;;;59.17;23.02;;;153.90;2252.80;;;;;;4892035;29;20397;-80
2022/02/01 10:56:22;;;;;;;47.95;18.85;;;153.90;2252.80;;;;;;4888220;29;20511;-81
2022/02/01 10:58:50;;;;;;;37.47;17.02;;;153.80;2252.80;;;;;;4905584;29;20016;-76
2022/02/01 11:01:18;;;;;;;31.13;15.18;;;153.70;2252.80;;;;;;4907029;29;20040;-80
2022/02/01 11:03:47;;;;;;;35.55;15.57;;;153.70;2252.80;;;;;;4906657;29;20025;-82
2022/02/01 11:06:14;;;;;;;44.13;16.90;;;153.70;2252.80;;;;;;4905156;29;20021;-77
2022/02/01 11:08:42;;;;;;;38.40;16.95;;;128.90;2252.80;;;;;;4906372;29;20038;-75
2022/02/01 11:11:17;;;;;;;35.10;16.60;;;153.70;2252.80;;;;;;4891489;29;20028;-81
2022/02/01 11:13:47;;;;;;;33.13;15.38;;;154.00;2252.80;;;;;;4906177;29;20039;-78
2022/02/01 11:16:18;;;;;;;28.35;13.70;;;154.00;2252.80;;;;;;4906477;29;20028;-78
2022/02/01 11:19:04;;;;;;;35.47;14.75;;;153.80;2252.80;;;;;;4905804;29;20029;-78
2022/02/01 11:21:46;;;;;;;28.40;14.02;;;153.70;2252.80;;;;;;4913718;29;20035;-76
2022/02/01 11:24:37;;;;;;;35.67;14.98;;;153.90;2252.80;;;;;;4917765;29;20061;-79
2022/02/01 11:27:19;;;;;;;32.42;15.35;;;154.00;2252.80;;;;;;4919293;29;20481;-81
2022/02/01 11:32:31;;;;;;;42.65;17.15;;;154.10;2252.80;;;;;;4919406;29;20043;-80
2022/02/01 11:35:09;;;;;;;36.17;16.35;;;153.80;2252.80;;;;;;4918752;29;20060;-80
2022/02/01 11:37:49;;;;;;;30.42;15.98;;;153.70;2252.80;;;;;;4918863;29;20040;-76
2022/02/01 11:40:17;;;;;;;35.42;14.98;;;128.90;2252.80;;;;;;4919029;29;20083;-81
2022/02/01 11:43:07;;;;;;;42.30;17.10;;;128.80;2252.80;;;;;;4918655;29;20050;-78
2022/02/01 11:45:36;;;;;;;37.22;18.33;;;128.90;2252.80;;;;;;4860712;29;20116;-75
2022/02/01 11:48:15;;;;;;;38.50;20.33;;;153.60;2252.80;;;;;;4860946;29;20491;-78
2022/02/01 11:50:46;;;;;;;32.60;17.40;;;128.90;2252.80;;;;;;4860541;29;20057;-81
2022/02/01 11:53:19;;;;;;;47.58;16.20;;;153.60;2252.80;;;;;;4861005;29;20170;-80
2022/02/01 11:55:48;;;;;;;29.15;14.43;;;153.60;2252.80;;;;;;4860470;29;20029;-82
2022/02/01 11:58:14;;;;;;;35.15;16.02;;;128.90;2252.80;;;;;;4860469;29;20030;-82
2022/02/01 12:00:41;;;;;;;38.45;15.32;;;153.60;2252.80;;;;;;4860106;29;20040;-76
2022/02/01 12:03:09;;;;;;;39.72;14.98;;;153.80;2252.80;;;;;;4860318;29;20098;-80
2022/02/01 12:05:38;;;;;;;37.78;16.35;;;153.90;2252.80;;;;;;4860447;29;20386;-80
2022/02/01 12:08:09;;;;;;;28.60;14.43;;;153.80;2252.80;;;;;;4844177;29;20151;-76
2022/02/01 12:10:39;;;;;;;31.27;15.70;;;153.70;2252.80;;;;;;4860658;29;20041;-75
2022/02/01 12:13:06;;;;;;;32.30;13.90;;;153.60;2252.80;;;;;;4859918;29;20057;-76
2022/02/01 12:15:38;;;;;;;32.42;15.27;;;153.60;2252.80;;;;;;4859902;29;20038;-74
2022/02/01 12:18:22;;;;;;;28.35;14.50;;;153.60;2252.80;;;;;;4859681;29;20044;-75
2022/02/01 12:21:15;;;;;;;29.58;14.55;;;153.80;2252.80;;;;;;4859567;29;20048;-82
2022/02/01 12:23:49;;;;;;;29.27;13.00;;;153.70;2252.80;;;;;;4910556;29;20043;-75
2022/02/01 12:26:20;;;;;;;27.55;13.95;;;153.90;2252.80;;;;;;4908201;29;20032;-81
2022/02/01 12:28:47;;;;;;;30.10;13.18;;;153.80;2252.80;;;;;;4908976;29;20031;-80
2022/02/01 12:31:14;;;;;;;26.83;12.32;;;154.00;2252.80;;;;;;4909368;29;20467;-75
2022/02/01 12:33:43;;;;;;;25.45;12.95;;;153.80;2252.80;;;;;;4907982;29;20024;-79
2022/02/01 12:36:10;;;;;;;32.95;14.68;;;154.10;2252.80;;;;;;4908960;29;20016;-82
2022/02/01 12:38:36;;;;;;;32.03;15.63;;;154.00;2252.80;;;;;;4908483;29;20047;-82
2022/02/01 12:41:15;;;;;;;30.45;14.48;;;154.00;2252.80;;;;;;4915847;29;20107;-82
2022/02/01 12:45:45;;;;;;;29.27;13.75;;;154.00;2252.80;;;;;;4916937;29;20032;-78
2022/02/01 12:49:06;;;;;;;29.98;15.40;;;154.10;2252.80;;;;;;4908704;29;20032;-78
2022/02/01 12:51:39;;;;;;;;;;;153.90;2252.80;;;;;;4908288;29;20385;-79
2022/02/01 12:54:05;;;;;;;31.48;13.75;;;154.00;2252.80;;;;;;4911816;29;19967;-79
2022/02/01 12:56:31;;;;;;;26.55;14.65;;;153.80;2252.80;;;;;;4916073;29;20032;-77
2022/02/01 12:58:59;;;;;;;35.65;15.30;;;153.90;2252.80;;;;;;4906914;29;20024;-77
2022/02/01 13:01:37;;;;;;;33.20;15.35;;;154.00;2252.80;;;;;;4907127;29;20025;-80
2022/02/01 13:04:05;;;;;;;29.63;14.38;;;154.10;2252.80;;;;;;4906281;29;20089;-80
2022/02/01 13:06:38;;;;;;;36.97;18.15;;;154.20;2252.80;;;;;;4905923;29;20037;-82
2022/02/01 13:14:47;;;;;;;32.45;13.35;;;154.00;2252.80;;;;;;4910151;29;20092;-78
2022/02/01 13:20:06;;;;;;;24.30;12.70;;;154.10;2252.80;;;;;;4903564;29;20023;-81
2022/02/01 13:22:35;;;;;;;32.05;14.85;;;154.10;2252.80;;;;;;4898285;29;20115;-81
2022/02/01 13:25:12;;;;;;;28.50;15.38;;;154.10;2252.80;;;;;;4898125;29;20028;-82
2022/02/01 13:27:37;;;;;;;31.30;17.40;;;154.20;2252.80;;;;;;4898266;29;20036;-81
2022/02/01 13:30:05;;;;;;;;;;;154.10;2252.80;;;;;;4897652;29;20047;-82
2022/02/01 13:32:42;;;;;;;;;;;154.20;2252.80;;;;;;4898780;29;19948;-80
2022/02/01 13:35:10;;;;;;;33.28;15.77;;;154.10;2252.80;;;;;;4881785;29;19907;-76
2022/02/01 13:37:44;;;;;;;37.75;16.75;;;154.10;2252.80;;;;;;4905245;29;20068;-75
2022/02/01 13:40:21;;;;;;;28.20;15.70;;;154.20;2252.80;;;;;;4906764;29;20048;-78
2022/02/01 13:42:47;;;;;;;26.95;13.90;;;154.10;2252.80;;;;;;4904562;29;20029;-79
2022/02/01 13:45:14;;;;;;;30.15;15.15;;;154.10;2252.80;;;;;;4890769;29;20033;-75
2022/02/01 13:47:42;;;;;;;30.45;15.68;;;154.10;2252.80;;;;;;4907987;29;20092;-80
2022/02/01 13:50:20;;;;;;;26.58;14.43;;;154.20;2252.80;;;;;;4907932;29;20024;-78
2022/02/01 13:52:58;;;;;;;24.55;14.55;;;154.10;2252.80;;;;;;4907814;29;20111;-80
2022/02/01 13:55:25;;;;;;;31.65;15.43;;;154.20;2252.80;;;;;;4906034;29;20470;-79
2022/02/01 13:58:08;;;;;;;27.30;14.60;;;154.10;2252.80;;;;;;4888827;29;20036;-78
2022/02/01 14:00:48;;;;;;;28.83;15.02;;;154.00;2252.80;;;;;;4907682;29;20021;-79
2022/02/01 14:03:38;;;;;;;32.40;15.70;;;153.90;2252.80;;;;;;4907273;29;20024;-79
2022/02/01 14:08:55;;;;;;;29.52;15.50;;;153.90;2252.80;;;;;;4897528;29;20055;-75
2022/02/01 14:35:39;;;;;;;34.30;16.65;;;154.10;2252.80;;;;;;4907750;29;20031;-79
2022/02/01 14:38:23;;;;;;;33.72;17.52;;;154.00;2252.80;;;;;;4907115;29;20028;-79